Terminal Aerodrome Forecast
Issued by NWS Detroit/Pontiac, MI

Current Version | Previous Version | Text Only | Print | Product List | Glossary On
Versions: 1 2 3 4 5 6 7 8 9 10 11 12 13 14 15 16 17 18 19 20 21 22 23 24 25 26 27 28 29 30 31 32 33 34 35 36
671
FTUS43 KDTX 291720
TAFDTW
TAF
KDTW 291720Z 2918/3024 07008KT P6SM FEW035 BKN150
     FM300100 05006KT P6SM OVC120
     FM301000 05011KT P6SM OVC080
     FM301500 06013G22KT P6SM -RA SCT050 OVC070
     FM301700 07014G23KT 5SM -RA SCT028 OVC045
     FM302000 07013G23KT 3SM -RA SCT015 OVC022=

USA.gov is the U.S. government's official web portal to all federal, state and local government web resources and services.